Glade Valley, North Carolina
Current Conditions -  °F | °C
As of 11:35 AM on Wednesday 26 Nov 2014 (Local Time) from KUKF Reporting Station
Drizzle Drizzle  
Wind Chill: 39°   Ceiling: 4900
Heat Index: 39°   Visibility: 10mi
Dew Point: 37°   Wind: 0mph
Humidity: 93%   Direction: NA
Pressure: 30.05"   Gusts: NA
Location:  36.47°N, 81.05°W
Report Text: KUKF 261635Z AUTO 00000KT 10SM -DZ SCT007 BKN049 OVC095 04/03 A3005 RMK AO2
Loading
Personal Weather Stations






























Interactive Weather Map New forecast layout! Learn more

10-Day Weather Forecast

Advertisements
Track Severe Weather on mobile